Latest Weather Observations for Ouse

IDT60801

Issued at 11:11 pm EST Thursday 18 July 2024 (issued every 10 minutes, with the page automatically refreshed every 10 minutes)

About weather observations | Map of weather stations | Latest weather observations for TAS | Other Formats
Station Details ID: 095048 Name: OUSE FIRE STATION Lat: -42.48 Lon: 146.71 Height: 90.0 m
Data from the previous 72 hours. | See also: Recent months at Ouse
Date/Time
EST
Temp
°C
App
Temp
°C
Dew
Point
°C
Rel
Hum
%
Delta-T
°C
Wind Press
QNH
hPa
Press
MSL
hPa
Rain since
9am
mm
Dir  Spd
km/h
Gust
km/h
Spd
kts
Gust
kts
18/11:00pm 2.1 -1.9 0.3 88 0.7 NNE 11 13 6 7 1009.7 1009.9 -
18/10:30pm 2.0 -2.1 -0.2 85 0.8 NW 11 17 6 9 1010.2 1010.5 -
18/10:00pm 1.6 -2.5 -0.5 86 0.8 NW 11 13 6 7 1010.1 1010.4 -
18/09:30pm 3.1 -0.5 0.7 84 0.9 NNW 9 15 5 8 1010.5 1010.8 -
18/09:00pm 3.7 0.0 0.1 77 1.4 N 9 15 5 8 1010.6 1010.9 0.0
18/08:30pm 5.7 1.4 0.9 71 1.9 NW 13 20 7 11 1010.6 1010.9 0.0
18/08:00pm 5.9 0.9 1.4 73 1.8 WNW 17 28 9 15 1010.5 1010.8 0.0
18/07:30pm 4.3 0.5 1.7 83 1.0 N 11 19 6 10 1010.2 1010.5 0.0
18/07:00pm 4.2 0.2 0.7 78 1.4 N 11 17 6 9 1010.4 1010.7 0.0
18/06:30pm 6.0 1.7 0.8 69 2.1 WNW 13 17 7 9 1010.2 1010.5 0.0
18/06:00pm 6.5 1.8 0.8 67 2.3 NW 15 19 8 10 1010.5 1010.8 0.0
18/05:30pm 6.8 2.1 0.9 66 2.4 WNW 15 20 8 11 1010.2 1010.5 0.0
18/05:00pm 7.7 1.7 1.3 64 2.6 W 22 37 12 20 1009.9 1010.1 0.0
18/04:30pm 8.2 3.6 1.8 64 2.6 WNW 15 22 8 12 1009.7 1009.9 0.0
18/04:00pm 9.1 3.2 1.8 60 3.1 W 22 39 12 21 1009.4 1009.6 0.0
18/03:30pm 9.2 4.3 2.1 61 3.0 W 17 26 9 14 1008.9 1009.1 0.0
18/03:00pm 9.9 4.6 2.0 58 3.3 W 19 24 10 13 1008.6 1008.8 0.0
18/02:30pm 10.7 6.0 3.0 59 3.4 WNW 17 22 9 12 1008.5 1008.7 0.0
18/02:00pm 10.5 6.3 1.9 55 3.7 W 13 20 7 11 1008.6 1008.8 0.0
18/01:30pm 10.5 5.5 1.1 52 3.9 WSW 17 30 9 16 1008.9 1009.1 0.0
18/01:00pm 11.3 6.1 2.6 55 3.8 WSW 19 30 10 16 1009.3 1009.5 0.0
18/12:30pm 9.7 4.8 2.1 59 3.2 SW 17 26 9 14 1009.7 1009.9 0.0
18/12:00pm 11.3 7.3 2.9 56 3.7 W 13 19 7 10 1010.1 1010.4 0.0
18/11:30am 10.0 6.3 2.1 58 3.3 WSW 11 24 6 13 1010.7 1011.0 0.0
18/11:00am 10.7 6.3 2.5 57 3.5 SW 15 39 8 21 1011.0 1011.3 0.0
18/10:30am 9.9 5.0 2.3 59 3.2 WSW 17 35 9 19 1011.1 1011.4 0.0
18/10:00am 9.2 4.3 2.1 61 3.0 SW 17 30 9 16 1011.1 1011.4 0.0
18/09:30am 8.5 4.8 2.3 65 2.6 W 11 20 6 11 1011.2 1011.5 0.0
18/09:00am 7.2 4.2 2.3 71 2.0 WNW 7 13 4 7 1011.2 1011.5 0.0
18/08:30am 7.3 4.1 2.8 73 1.9 NW 9 13 5 7 1011.0 1011.3 0.0
18/08:00am 6.4 3.4 2.1 74 1.8 NW 7 15 4 8 1010.9 1011.2 0.0
18/07:30am 6.8 2.7 2.1 72 1.9 W 13 24 7 13 1010.8 1011.1 0.0
18/07:00am 6.6 2.9 2.3 74 1.8 WNW 11 17 6 9 1010.8 1011.1 0.0
18/06:30am 6.1 2.7 1.8 74 1.7 WNW 9 15 5 8 1010.8 1011.1 0.0
18/06:00am 5.9 1.8 2.0 76 1.6 WNW 13 19 7 10 1010.7 1011.0 0.0
18/05:30am 5.0 1.6 1.7 79 1.3 W 9 15 5 8 1010.8 1011.1 0.0
18/05:00am 5.4 1.7 2.2 80 1.3 WNW 11 15 6 8 1010.7 1011.0 0.0
18/04:30am 5.4 1.3 2.2 80 1.3 NW 13 19 7 10 1010.7 1011.0 0.0
18/04:00am 5.0 0.4 1.8 80 1.3 WNW 15 17 8 9 1010.8 1011.1 0.0
18/03:30am 5.4 0.9 1.9 78 1.4 WNW 15 22 8 12 1011.1 1011.4 0.0
18/03:00am 5.5 0.1 1.4 75 1.6 WNW 19 32 10 17 1011.2 1011.5 0.0
18/02:30am 4.9 1.0 0.9 75 1.6 WNW 11 17 6 9 1011.2 1011.5 0.0
18/02:00am 5.0 0.3 0.6 73 1.7 WNW 15 20 8 11 1011.2 1011.5 0.0
18/01:30am 4.0 1.3 0.3 77 1.4 WNW 4 15 2 8 1011.4 1011.7 0.0
18/01:00am 5.3 0.2 0.7 72 1.8 WNW 17 22 9 12 1011.6 1011.9 0.0
18/12:30am 3.3 -1.0 1.3 87 0.8 W 13 20 7 11 1011.8 1012.1 0.0
18/12:00am 1.7 -1.5 -0.7 84 0.9 WNW 6 9 3 5 1012.1 1012.4 0.0
 
Date/Time
EST
Temp
°C
App
Temp
°C
Dew
Point
°C
Rel
Hum
%
Delta-T
°C
Wind Press
QNH
hPa
Press
MSL
hPa
Rain since
9am
mm
Dir  Spd
km/h
Gust
km/h
Spd
kts
Gust
kts
17/11:30pm 5.3 1.0 0.7 72 1.8 WNW 13 17 7 9 1012.2 1012.5 0.0
17/11:00pm 5.2 0.9 0.8 73 1.7 WNW 13 20 7 11 1012.4 1012.7 0.0
17/10:30pm 4.4 -0.2 1.3 80 1.2 WNW 15 20 8 11 1012.6 1012.9 0.0
17/10:00pm 1.9 -0.4 0.4 90 0.6 NW 2 7 1 4 1012.7 1013.0 0.0
17/09:30pm 2.7 -0.4 0.3 84 0.9 NW 6 9 3 5 1012.7 1013.0 0.0
17/09:00pm 2.0 -1.6 0.7 91 0.5 NNW 9 13 5 7 1012.8 1013.1 0.0
17/08:30pm 2.3 -1.2 1.1 92 0.5 NW 9 13 5 7 1012.8 1013.1 0.0
17/08:00pm 2.6 -0.6 0.8 88 0.7 N 7 11 4 6 1012.8 1013.1 0.0
17/07:30pm 2.5 -0.4 1.3 92 0.5 N 6 9 3 5 1012.8 1013.1 0.0
17/07:00pm 1.7 -1.9 0.8 94 0.3 N 9 11 5 6 1012.8 1013.1 0.0
17/06:30pm 2.3 0.1 1.3 93 0.4 ESE 2 6 1 3 1012.7 1013.0 0.0
17/06:00pm 3.3 0.5 2.1 92 0.5 ESE 6 9 3 5 1012.5 1012.8 0.0
17/05:30pm 4.4 2.4 2.4 87 0.8 ESE 2 6 1 3 1012.3 1012.6 0.0
17/05:00pm 5.8 3.0 3.1 83 1.1 ESE 7 9 4 5 1012.3 1012.6 0.0
17/04:30pm 7.4 3.9 3.3 75 1.7 SE 11 17 6 9 1012.3 1012.6 0.0
17/04:00pm 7.8 3.5 3.3 73 1.9 ESE 15 22 8 12 1012.2 1012.5 0.0
17/03:30pm 7.8 4.3 3.7 75 1.8 ESE 11 22 6 12 1012.1 1012.4 0.0
17/03:00pm 8.8 4.0 2.8 66 2.6 SE 17 30 9 16 1011.8 1012.1 0.0
17/02:30pm 9.7 6.0 2.6 61 3.0 ESE 11 17 6 9 1011.6 1011.9 0.0
17/02:00pm 10.1 5.8 1.2 54 3.7 SSE 13 20 7 11 1011.7 1012.0 0.0
17/01:30pm 10.8 7.4 1.9 54 3.8 SE 9 17 5 9 1011.8 1012.1 0.0
17/01:00pm 10.6 7.3 2.2 56 3.6 SE 9 17 5 9 1012.1 1012.4 0.0
17/12:30pm 9.9 6.2 2.5 60 3.2 SE 11 17 6 9 1012.4 1012.7 0.0
17/12:00pm 9.2 4.8 2.5 63 2.8 SSE 15 20 8 11 1012.9 1013.2 0.0
17/11:30am 8.7 5.9 2.3 64 2.7 SW 6 11 3 6 1013.5 1013.8 0.0
17/11:00am 8.5 5.8 2.5 66 2.5 S 6 7 3 4 1014.0 1014.3 0.0
17/10:30am 8.6 6.5 3.8 72 2.1 S 4 9 2 5 1014.2 1014.5 0.0
17/10:00am 9.3 6.8 3.7 68 2.4 S 6 11 3 6 1014.2 1014.5 0.0
17/09:30am 7.9 6.4 3.2 72 2.0 CALM 0 0 0 0 1014.3 1014.6 0.0
17/09:00am 7.1 4.9 3.5 78 1.5 S 4 7 2 4 1014.3 1014.6 1.6
17/08:30am 5.6 3.1 3.8 88 0.8 S 6 9 3 5 1014.2 1014.5 1.6
17/08:00am 4.2 1.4 2.2 87 0.8 SSW 6 9 3 5 1014.1 1014.4 1.6
17/07:30am 4.6 1.6 1.8 82 1.1 SSW 7 11 4 6 1013.9 1014.2 1.6
17/07:00am 6.4 2.6 1.9 73 1.8 S 11 17 6 9 1013.7 1014.0 1.6
17/06:30am 7.0 2.9 2.5 73 1.9 S 13 24 7 13 1013.5 1013.8 1.6
17/06:00am 7.5 2.2 3.2 74 1.8 SSE 20 28 11 15 1013.1 1013.4 1.6
17/05:30am 7.8 2.8 3.7 75 1.8 SSE 19 26 10 14 1012.9 1013.2 1.6
17/05:00am 8.1 2.7 4.3 77 1.7 SE 22 37 12 20 1012.5 1012.8 1.6
17/04:30am 8.3 3.5 4.9 79 1.5 SE 19 33 10 18 1012.1 1012.4 1.6
17/04:00am 8.7 4.5 5.8 82 1.3 SE 17 26 9 14 1011.8 1012.1 1.6
17/03:30am 8.9 5.3 6.7 86 1.0 SE 15 22 8 12 1011.6 1011.9 1.6
17/03:00am 8.6 7.0 8.2 97 0.2 SE 6 11 3 6 1011.6 1011.9 1.6
17/02:30am 8.7 8.3 8.3 97 0.2 CALM 0 0 0 0 1011.4 1011.7 1.6
17/02:00am 9.0 7.4 8.6 97 0.2 S 7 7 4 4 1011.2 1011.5 1.6
17/01:30am 8.7 7.2 8.3 97 0.2 S 6 7 3 4 1011.0 1011.3 1.4
17/01:00am 8.7 8.3 8.3 97 0.2 CALM 0 7 0 4 1011.0 1011.3 1.4
17/12:30am 8.4 7.1 7.8 96 0.3 S 4 9 2 5 1011.2 1011.5 0.8
17/12:00am 8.3 7.8 7.7 96 0.3 CALM 0 0 0 0 1011.1 1011.4 0.6
 
Date/Time
EST
Temp
°C
App
Temp
°C
Dew
Point
°C
Rel
Hum
%
Delta-T
°C
Wind Press
QNH
hPa
Press
MSL
hPa
Rain since
9am
mm
Dir  Spd
km/h
Gust
km/h
Spd
kts
Gust
kts
16/11:30pm 8.2 7.6 7.4 95 0.4 CALM 0 0 0 0 1011.1 1011.4 0.4
16/11:00pm 8.5 8.0 7.9 96 0.3 CALM 0 0 0 0 1011.0 1011.3 0.2
16/10:30pm 8.6 8.1 8.0 96 0.3 CALM 0 0 0 0 1011.0 1011.3 0.2
16/10:00pm 8.6 8.1 8.0 96 0.3 CALM 0 0 0 0 1010.9 1011.2 0.2
16/09:30pm 8.5 8.0 7.7 95 0.4 CALM 0 0 0 0 1010.8 1011.1 0.2
16/09:00pm 8.6 8.1 7.8 95 0.4 CALM 0 0 0 0 1010.7 1011.0 0.2
16/08:30pm 8.8 8.3 8.0 95 0.4 CALM 0 0 0 0 1010.7 1011.0 0.2
16/08:00pm 8.8 7.2 7.9 94 0.4 ESE 6 7 3 4 1010.6 1010.9 0.2
16/07:30pm 9.3 8.9 8.4 94 0.4 CALM 0 0 0 0 1010.4 1010.7 0.2
16/07:00pm 9.7 9.4 8.6 93 0.5 CALM 0 2 0 1 1010.1 1010.4 0.2
16/06:30pm 10.3 9.7 8.9 91 0.7 ESE 2 6 1 3 1010.0 1010.2 0.2
16/06:00pm 10.4 9.4 9.0 91 0.7 ESE 4 9 2 5 1009.7 1009.9 0.2
16/05:30pm 10.8 10.1 8.6 86 1.1 ESE 2 6 1 3 1009.5 1009.7 0.2
16/05:00pm 11.3 10.5 8.3 82 1.5 SSE 2 6 1 3 1009.3 1009.5 0.0
16/04:30pm 11.7 9.6 8.4 80 1.6 SSE 9 15 5 8 1009.1 1009.3 0.0
16/04:00pm 12.1 8.4 8.0 76 2.0 SSE 17 24 9 13 1008.9 1009.1 0.0
16/03:30pm 13.4 9.8 6.7 64 3.2 SSE 15 20 8 11 1008.6 1008.8 0.0
16/03:00pm 13.3 8.6 5.9 61 3.5 SSE 20 30 11 16 1008.5 1008.7 0.0
16/02:30pm 13.2 8.0 5.4 59 3.7 SSE 22 37 12 20 1008.3 1008.5 0.0
16/02:00pm 13.4 8.3 6.0 61 3.5 SE 22 33 12 18 1008.2 1008.4 0.0
16/01:30pm 13.6 9.0 6.7 63 3.3 SSE 20 30 11 16 1008.1 1008.3 0.0
16/01:00pm 13.7 9.8 7.2 65 3.2 SSE 17 24 9 13 1008.4 1008.6 0.0
16/12:30pm 13.2 10.6 7.9 70 2.6 SE 11 15 6 8 1008.8 1009.0 0.0
16/12:00pm 12.6 10.8 7.9 73 2.3 ESE 7 13 4 7 1009.1 1009.3 0.0
16/11:30am 12.4 11.4 8.9 79 1.8 SW 4 9 2 5 1009.4 1009.6 0.0
16/11:00am 11.7 10.8 9.4 86 1.2 N 4 7 2 4 1009.5 1009.7 0.0
16/10:30am 11.3 10.1 9.7 90 0.8 NNE 6 7 3 4 1009.5 1009.7 0.0
16/10:00am 10.1 10.0 9.5 96 0.3 CALM 0 0 0 0 1009.3 1009.5 0.0
16/09:30am 9.2 9.0 8.9 98 0.1 CALM 0 0 0 0 1009.1 1009.3 0.0
16/09:00am 8.1 7.6 7.8 98 0.1 CALM 0 0 0 0 1008.7 1008.9 4.8
16/08:30am 6.5 5.6 6.1 97 0.2 CALM 0 0 0 0 1008.4 1008.6 4.8
16/08:00am 6.4 5.5 6.0 97 0.2 CALM 0 0 0 0 1008.0 1008.2 4.8
16/07:30am 7.3 5.4 6.9 97 0.2 S 6 9 3 5 1007.7 1007.9 4.8
16/07:00am 7.9 7.0 7.6 98 0.1 S 2 7 1 4 1007.4 1007.6 4.8
16/06:30am 7.9 7.3 7.5 97 0.2 CALM 0 0 0 0 1006.8 1007.0 4.8
16/06:00am 8.5 7.3 8.1 97 0.2 S 4 7 2 4 1006.4 1006.6 4.8
16/05:30am 8.6 8.2 8.2 97 0.2 CALM 0 4 0 2 1005.9 1006.1 4.8
16/05:00am 8.6 6.9 8.2 97 0.2 S 7 9 4 5 1005.4 1005.6 4.8
16/04:30am 8.6 7.0 8.2 97 0.2 WSW 6 7 3 4 1005.1 1005.3 4.0
16/04:00am 8.2 6.9 7.8 97 0.2 WSW 4 6 2 3 1004.9 1005.1 3.8
16/03:30am 8.2 7.6 7.6 96 0.3 CALM 0 0 0 0 1004.5 1004.8 3.8
16/03:00am 8.6 8.2 8.2 97 0.2 CALM 0 2 0 1 1004.4 1004.7 3.8
16/02:30am 8.3 6.7 7.9 97 0.2 NNW 6 6 3 3 1004.3 1004.6 3.8
16/02:00am 7.9 6.1 7.3 96 0.3 NW 6 7 3 4 1004.2 1004.5 3.8
16/01:30am 8.0 7.4 7.2 95 0.4 CALM 0 0 0 0 1004.1 1004.4 3.8
16/01:00am 8.5 8.0 7.7 95 0.4 CALM 0 0 0 0 1003.8 1004.1 3.8
16/12:30am 8.9 8.1 8.0 94 0.4 SSE 2 6 1 3 1003.6 1003.9 3.8
16/12:00am 9.5 8.0 8.4 93 0.5 SSE 6 9 3 5 1003.5 1003.8 3.6
 
Date/Time
EST
Temp
°C
App
Temp
°C
Dew
Point
°C
Rel
Hum
%
Delta-T
°C
Wind Press
QNH
hPa
Press
MSL
hPa
Rain since
9am
mm
Dir  Spd
km/h
Gust
km/h
Spd
kts
Gust
kts
15/11:30pm 9.9 8.4 9.0 94 0.4 SW 7 11 4 6 1003.4 1003.7 3.6

Other formats

Comma delimited format used in spreadsheet applications
http://www.bom.gov.au/fwo/IDT60801/IDT60801.94957.axf

JavaScript Object Notation format (JSON) in row-major order
http://www.bom.gov.au/fwo/IDT60801/IDT60801.94957.json

Data quality

Most of these data are generated automatically and are frequently updated. Quality checks on data are not normally performed. It is possible for incorrect values to appear. Refer to information at About Latest Weather Observations and please check the disclaimer before using these data.